»·PEaware :: SKW3190 KSAN-KLAX

SKW3190 :: KSAN-KLAX

FLIGHT INFORMATION

Flight Status: Arrived
Operator:
SkyWest Airlines
More flights by this operator :: More flights under this callsign
Pilot: Chris O. (30060)
Aircraft: EMBRAER EMB-170/175
(E170)
More flights by this aircraft type
Origin: KSAN San Diego Intl-Lindbergh
United States
Destination: KLAX Los Angeles Intl
United States
More flights between these airports :: More routes between these airports
Route: CWARD2 SLI
File this flight plan on PilotEdge
Remarks: RMK / SIMBRIEF
Altitude:
(Current/Filed)
10,000ft
Speed:
(Current/Filed)
342kts
Departed: 27-Jul-22 08:18 PM
Arrived: 27-Jul-22 08:54 PM
Distance/Time
Traveled:
94nm/0:36
Distance/Time
To Go:
Arrived

Flight Plot

Page will automatically refresh every two minutes.

Flight plan parsing failed; only flown route is shown


Map Options




Map Legend


Flown Route
Filed Route
Departure Airport
Arrival Airport
Navaid (VOR, NDB)
Fix

Horizontal Profiles

Position Reports

Time Latitude Longitude Heading Altitude Ground
Speed
27-Jul-22 20:02 32.732755 -117.197029 134 24ft 0kts
27-Jul-22 20:03 32.732755 -117.197029 134 24ft 0kts
27-Jul-22 20:04 32.732755 -117.197029 134 24ft 0kts
27-Jul-22 20:05 32.732755 -117.197029 134 24ft 0kts
27-Jul-22 20:06 32.732755 -117.197029 134 24ft 0kts
27-Jul-22 20:07 32.732755 -117.197029 134 24ft 0kts
27-Jul-22 20:08 32.732755 -117.197029 134 24ft 0kts
27-Jul-22 20:09 32.732791 -117.197067 175 24ft 0kts
27-Jul-22 20:10 32.733376 -117.197034 181 24ft 2kts
27-Jul-22 20:11 32.733517 -117.197164 30 24ft 0kts
27-Jul-22 20:12 32.733430 -117.197191 17 24ft 0kts
27-Jul-22 20:13 32.733432 -117.197190 17 24ft 0kts
27-Jul-22 20:14 32.732536 -117.189663 105 24ft 39kts
27-Jul-22 20:15 32.729445 -117.176974 87 24ft 26kts
27-Jul-22 20:16 32.729650 -117.176380 52 24ft 13kts
27-Jul-22 20:17 32.738701 -117.209938 289 676ft 188kts
27-Jul-22 20:18 32.772081 -117.270323 304 3719ft 232kts
27-Jul-22 20:19 32.812972 -117.339182 308 6652ft 272kts
27-Jul-22 20:20 32.860126 -117.412270 308 9661ft 288kts
27-Jul-22 20:21 32.909404 -117.488836 308 10005ft 290kts
27-Jul-22 20:22 32.961526 -117.569995 308 10003ft 327kts
27-Jul-22 20:23 33.016121 -117.655194 308 9999ft 322kts
27-Jul-22 20:24 33.072467 -117.737254 318 10007ft 320kts
27-Jul-22 20:25 33.139232 -117.806226 319 9999ft 320kts
27-Jul-22 20:26 33.212647 -117.864282 342 10005ft 321kts
27-Jul-22 20:27 33.299685 -117.889857 345 10001ft 322kts
27-Jul-22 20:28 33.383852 -117.914030 344 9979ft 284kts
27-Jul-22 20:29 33.460102 -117.939327 342 9080ft 281kts
27-Jul-22 20:30 33.533829 -117.965138 342 7637ft 273kts
27-Jul-22 20:31 33.605009 -117.990061 342 6978ft 269kts
27-Jul-22 20:32 33.674752 -118.014602 342 6971ft 269kts
27-Jul-22 20:33 33.740709 -118.037873 342 6966ft 266kts
27-Jul-22 20:34 33.805448 -118.060891 346 6967ft 230kts
27-Jul-22 20:35 33.868609 -118.070711 351 5870ft 242kts
27-Jul-22 20:36 33.926298 -118.079340 351 4981ft 211kts
27-Jul-22 20:37 33.977385 -118.086579 351 4982ft 205kts
27-Jul-22 20:38 34.032673 -118.094188 351 4990ft 217kts
27-Jul-22 20:39 34.099154 -118.103209 351 4998ft 220kts
27-Jul-22 20:40 34.151136 -118.127759 277 5002ft 212kts
27-Jul-22 20:41 34.114107 -118.164849 202 4995ft 212kts
27-Jul-22 20:42 34.063418 -118.150040 151 3763ft 219kts
27-Jul-22 20:43 34.015879 -118.116992 151 2964ft 184kts
27-Jul-22 20:44 33.976506 -118.089606 151 2984ft 183kts
27-Jul-22 20:45 33.936851 -118.066082 183 2967ft 181kts
27-Jul-22 20:46 33.924364 -118.105871 281 3047ft 207kts
27-Jul-22 20:47 33.937486 -118.159408 292 2983ft 204kts
27-Jul-22 20:48 33.952078 -118.210293 267 2465ft 177kts
27-Jul-22 20:49 33.949752 -118.260385 267 2187ft 168kts
27-Jul-22 20:50 33.942806 -118.312229 260 1404ft 143kts
27-Jul-22 20:51 33.937799 -118.363358 269 488ft 136kts
27-Jul-22 20:52 33.935275 -118.403267 272 119ft 46kts
27-Jul-22 20:53 33.935742 -118.405827 290 124ft 16kts

Navigation Log

Ident Type
Flight plan parsing failed, navigation log unavailable